Time;durP1;ratioP1;P1;durP2;ratioP2;P2;SDS_P1;SDS_P2;PMS_P1;PMS_P2;Temp;Humidity;BMP_temperature;BMP_pressure;BME280_temperature;BME280_humidity;BME280_pressure;Samples;Min_cycle;Max_cycle;Signal;HPM_P1;HPM_P2
2023/09/18 00:00:23;;;;;;;9.80;3.70;;;;;;;18.38;100.00;96134.63;5016851;28;20766;-66
2023/09/18 00:02:48;;;;;;;9.45;4.32;;;;;;;18.32;100.00;96142.69;5021235;28;20558;-68
2023/09/18 00:05:15;;;;;;;6.68;3.25;;;;;;;18.13;100.00;96141.56;5016552;28;20045;-68
2023/09/18 00:07:44;;;;;;;7.75;3.58;;;;;;;18.15;100.00;96141.13;5021342;28;20064;-69
2023/09/18 00:10:13;;;;;;;8.90;3.50;;;;;;;18.18;100.00;96137.47;5020844;28;20149;-71
2023/09/18 00:12:38;;;;;;;10.02;4.30;;;;;;;18.30;100.00;96138.81;5022197;28;20073;-68
2023/09/18 00:15:05;;;;;;;10.50;4.55;;;;;;;18.43;100.00;96141.66;5024841;28;20079;-66
2023/09/18 00:17:31;;;;;;;10.98;4.40;;;;;;;18.40;100.00;96145.28;5021983;28;20069;-68
2023/09/18 00:19:56;;;;;;;10.85;3.92;;;;;;;18.42;100.00;96134.56;5024210;28;20671;-68
2023/09/18 00:22:22;;;;;;;8.02;3.65;;;;;;;18.44;100.00;96144.00;5021350;28;20511;-67
2023/09/18 00:24:47;;;;;;;25.42;10.40;;;;;;;18.26;100.00;96127.03;5020997;28;20045;-68
2023/09/18 00:27:13;;;;;;;15.55;4.18;;;;;;;18.22;100.00;96126.31;5016227;28;20084;-67
2023/09/18 00:29:39;;;;;;;9.73;3.60;;;;;;;18.09;100.00;96117.88;5021547;28;20053;-68
2023/09/18 00:32:05;;;;;;;12.52;5.30;;;;;;;18.13;100.00;96110.25;5016261;28;20092;-67
2023/09/18 00:34:31;;;;;;;15.52;5.97;;;;;;;18.12;100.00;96103.94;5020709;28;20500;-68
2023/09/18 00:36:58;;;;;;;10.05;4.10;;;;;;;18.12;100.00;96101.19;5022154;28;20042;-68
2023/09/18 00:39:24;;;;;;;7.97;4.18;;;;;;;18.12;100.00;96105.94;5016819;28;20053;-68
2023/09/18 00:41:53;;;;;;;8.43;4.07;;;;;;;17.96;100.00;96098.38;5029689;28;20068;-67
2023/09/18 00:44:19;;;;;;;12.07;4.68;;;;;;;17.94;100.00;96093.28;5016543;28;20053;-67
2023/09/18 00:46:45;;;;;;;9.70;4.20;;;;;;;17.85;100.00;96097.81;5021855;28;20041;-67
2023/09/18 00:49:12;;;;;;;8.32;3.25;;;;;;;17.82;100.00;96093.91;5015897;28;20128;-67
2023/09/18 00:51:38;;;;;;;6.72;4.13;;;;;;;17.71;100.00;96088.59;5021527;28;20045;-68
2023/09/18 00:54:04;;;;;;;9.93;4.05;;;;;;;17.63;100.00;96083.63;5018227;28;20069;-67
2023/09/18 00:56:29;;;;;;;9.13;3.63;;;;;;;17.56;100.00;96090.13;5018957;28;20068;-68
2023/09/18 00:58:55;;;;;;;8.95;3.83;;;;;;;17.54;100.00;96095.31;5021120;28;20037;-69
2023/09/18 01:01:23;;;;;;;8.88;3.53;;;;;;;17.52;100.00;96098.50;5017046;28;20049;-69
2023/09/18 01:03:53;;;;;;;7.32;3.20;;;;;;;17.42;100.00;96105.03;5021706;28;20037;-69
2023/09/18 01:06:20;;;;;;;7.63;3.40;;;;;;;17.41;100.00;96099.91;5016042;28;20048;-67
2023/09/18 01:08:49;;;;;;;10.32;3.65;;;;;;;17.37;100.00;96095.22;5020882;28;20049;-70
2023/09/18 01:11:42;;;;;;;6.43;3.13;;;;;;;17.30;100.00;96089.84;5014471;28;20109;-67
2023/09/18 01:14:28;;;;;;;8.68;3.33;;;;;;;17.30;100.00;96102.91;5016272;28;20053;-67
2023/09/18 01:16:57;;;;;;;9.40;3.25;;;;;;;17.31;100.00;96099.72;5016209;28;20065;-66
2023/09/18 01:19:39;;;;;;;8.48;3.10;;;;;;;17.26;100.00;96093.88;5015991;28;20923;-68
2023/09/18 01:22:09;;;;;;;8.13;2.97;;;;;;;17.29;100.00;96093.06;5016584;28;20045;-66
2023/09/18 01:24:36;;;;;;;10.50;3.28;;;;;;;17.32;100.00;96090.22;5020827;28;20076;-67
2023/09/18 01:27:06;;;;;;;9.27;3.58;;;;;;;17.19;100.00;96092.81;5020935;28;20045;-68
2023/09/18 01:29:32;;;;;;;9.32;4.47;;;;;;;16.90;100.00;96091.81;5023689;28;20098;-68
2023/09/18 01:31:58;;;;;;;8.55;4.18;;;;;;;16.46;100.00;96079.88;5025065;28;20132;-69
2023/09/18 01:34:31;;;;;;;11.25;4.00;;;;;;;15.91;100.00;96065.38;5017513;28;20459;-68
2023/09/18 01:36:58;;;;;;;8.15;4.43;;;;;;;15.96;100.00;96054.63;5023693;28;20068;-68
2023/09/18 01:39:27;;;;;;;11.63;4.05;;;;;;;15.99;100.00;96059.31;5014575;28;20084;-69
2023/09/18 01:41:52;;;;;;;8.80;3.92;;;;;;;16.10;100.00;96052.81;5029703;28;20060;-69
2023/09/18 01:44:18;;;;;;;9.68;4.03;;;;;;;16.27;100.00;96051.78;5023581;28;20412;-68
2023/09/18 01:46:44;;;;;;;7.93;3.58;;;;;;;16.49;100.00;96043.13;5020550;28;20087;-67
2023/09/18 01:49:09;;;;;;;7.47;3.70;;;;;;;16.49;100.00;96040.34;5016444;28;20050;-68
2023/09/18 01:51:35;;;;;;;6.85;3.40;;;;;;;16.20;100.00;96040.84;5034648;28;20056;-68
2023/09/18 01:54:01;;;;;;;10.40;3.45;;;;;;;16.27;100.00;96034.41;5027265;28;20045;-68
2023/09/18 01:56:26;;;;;;;12.32;3.97;;;;;;;16.37;100.00;96033.47;5019062;28;20152;-69
2023/09/18 01:58:51;;;;;;;8.38;3.85;;;;;;;16.49;100.00;96035.59;5024061;28;20551;-69
2023/09/18 02:01:17;;;;;;;9.60;3.85;;;;;;;16.51;100.00;96027.69;5017485;28;20144;-69
2023/09/18 02:03:42;;;;;;;6.53;3.75;;;;;;;16.56;100.00;96024.41;5024062;28;20057;-68
2023/09/18 02:06:08;;;;;;;8.85;3.70;;;;;;;16.65;100.00;96014.81;5019324;28;20049;-68
2023/09/18 02:08:34;;;;;;;7.82;3.95;;;;;;;16.68;100.00;96020.25;5032299;28;20037;-68
2023/09/18 02:11:00;;;;;;;9.68;3.47;;;;;;;16.65;100.00;96020.34;5024679;28;20266;-68
2023/09/18 02:13:25;;;;;;;8.38;3.83;;;;;;;16.69;100.00;96010.78;5021345;28;20088;-68
2023/09/18 02:15:51;;;;;;;8.95;3.55;;;;;;;16.62;100.00;96008.16;5024119;28;20113;-68
2023/09/18 02:18:16;;;;;;;6.00;3.55;;;;;;;16.80;100.00;96011.34;5017453;28;20049;-68
2023/09/18 02:20:42;;;;;;;9.93;3.53;;;;;;;16.83;100.00;96006.97;5025187;28;20045;-69
2023/09/18 02:23:07;;;;;;;8.65;3.58;;;;;;;16.64;100.00;95986.38;5019464;28;20560;-68
2023/09/18 02:25:33;;;;;;;9.77;3.30;;;;;;;16.63;100.00;95987.56;5024253;28;20049;-67
2023/09/18 02:27:58;;;;;;;11.73;3.03;;;;;;;16.82;100.00;95992.34;5024587;28;20447;-67
2023/09/18 02:30:23;;;;;;;9.52;3.60;;;;;;;16.81;100.00;95990.78;5014724;28;20148;-68
2023/09/18 02:32:49;;;;;;;12.40;3.70;;;;;;;16.75;100.00;95992.47;5023832;28;20148;-70
2023/09/18 02:35:14;;;;;;;8.93;3.67;;;;;;;16.69;100.00;95977.59;5026151;28;20051;-68
2023/09/18 02:37:40;;;;;;;8.30;3.30;;;;;;;16.75;100.00;95977.88;5030283;28;20037;-68
2023/09/18 02:40:06;;;;;;;8.35;3.58;;;;;;;16.67;100.00;95974.44;5018387;28;20045;-69
2023/09/18 02:42:31;;;;;;;7.78;3.90;;;;;;;16.73;100.00;95983.06;5023149;28;20073;-69
2023/09/18 02:44:56;;;;;;;8.68;3.55;;;;;;;16.68;100.00;95980.78;5024734;28;20049;-68
2023/09/18 02:47:22;;;;;;;9.90;3.60;;;;;;;16.62;100.00;95981.28;5018912;28;20631;-69
2023/09/18 02:49:47;;;;;;;7.28;3.50;;;;;;;16.48;100.00;95984.31;5022656;28;20046;-69
2023/09/18 02:52:12;;;;;;;7.88;3.60;;;;;;;16.41;100.00;95992.72;5019345;28;20445;-67
2023/09/18 02:54:38;;;;;;;6.47;3.97;;;;;;;16.29;100.00;95996.09;5023214;28;20396;-69
2023/09/18 02:57:03;;;;;;;11.57;3.65;;;;;;;16.34;100.00;95993.63;5018333;28;20106;-68
2023/09/18 02:59:29;;;;;;;9.15;3.85;;;;;;;16.25;100.00;96002.44;5032649;28;20049;-69
2023/09/18 03:01:54;;;;;;;12.27;4.03;;;;;;;16.14;100.00;96001.09;5023340;28;20041;-69
2023/09/18 03:04:20;;;;;;;9.55;4.15;;;;;;;16.07;100.00;96013.03;5018167;28;20056;-68
2023/09/18 03:06:45;;;;;;;11.25;3.80;;;;;;;16.06;100.00;96028.03;5039389;28;20042;-68
2023/09/18 03:09:11;;;;;;;10.07;4.38;;;;;;;16.33;100.00;96041.00;5022099;28;20045;-68
2023/09/18 03:11:36;;;;;;;7.20;3.50;;;;;;;16.61;100.00;96053.56;5030893;28;20049;-68
2023/09/18 03:14:01;;;;;;;10.75;3.75;;;;;;;16.64;100.00;96052.75;5031913;28;20046;-68
2023/09/18 03:16:27;;;;;;;10.35;3.75;;;;;;;16.72;100.00;96062.44;5026918;28;20050;-68
2023/09/18 03:18:52;;;;;;;8.38;3.60;;;;;;;16.69;100.00;96068.03;5025358;28;20052;-67
2023/09/18 03:21:18;;;;;;;8.82;4.22;;;;;;;16.58;100.00;96073.75;5017752;28;20064;-67
2023/09/18 03:23:43;;;;;;;8.18;3.53;;;;;;;16.45;100.00;96076.34;5028209;28;20045;-67
2023/09/18 03:26:08;;;;;;;13.30;3.75;;;;;;;16.34;100.00;96076.53;5019187;28;20078;-67
2023/09/18 03:28:34;;;;;;;12.05;4.97;;;;;;;16.24;100.00;96081.03;5032264;28;20061;-67
2023/09/18 03:30:59;;;;;;;11.68;3.97;;;;;;;16.39;100.00;96081.56;5030913;28;20132;-68
2023/09/18 03:33:25;;;;;;;9.23;3.75;;;;;;;16.69;100.00;96079.91;5026382;28;20048;-69
2023/09/18 03:35:54;;;;;;;9.88;3.72;;;;;;;16.83;100.00;96065.03;5022191;28;20072;-69
2023/09/18 03:38:20;;;;;;;7.93;4.00;;;;;;;16.86;100.00;96069.75;5017568;28;20072;-68
2023/09/18 03:40:46;;;;;;;11.77;4.22;;;;;;;16.83;100.00;96084.41;5020724;28;20292;-67
2023/09/18 03:43:14;;;;;;;13.43;4.28;;;;;;;16.81;100.00;96081.25;5017725;28;20045;-68
2023/09/18 03:45:42;;;;;;;10.43;4.10;;;;;;;16.90;100.00;96086.28;5022652;28;20084;-68
2023/09/18 03:48:08;;;;;;;6.20;3.80;;;;;;;16.95;100.00;96105.16;5032817;28;20523;-68
2023/09/18 03:50:33;;;;;;;12.77;4.80;;;;;;;16.95;100.00;96102.38;5025579;28;20053;-68
2023/09/18 03:52:59;;;;;;;10.63;4.18;;;;;;;16.99;100.00;96103.88;5027254;28;20124;-68
2023/09/18 03:55:24;;;;;;;6.50;3.92;;;;;;;17.05;100.00;96100.59;5017465;28;20049;-68
2023/09/18 03:57:52;;;;;;;10.20;3.95;;;;;;;17.11;100.00;96090.63;5019230;28;20041;-69
2023/09/18 04:00:17;;;;;;;10.10;4.18;;;;;;;17.16;100.00;96096.44;5016745;28;20056;-67
2023/09/18 04:02:43;;;;;;;9.95;4.20;;;;;;;17.22;100.00;96093.97;5022033;28;20037;-67
2023/09/18 04:05:09;;;;;;;11.55;4.03;;;;;;;17.22;100.00;96098.72;5016486;28;20048;-68
2023/09/18 04:07:34;;;;;;;10.85;4.57;;;;;;;17.23;100.00;96094.72;5021201;28;20045;-68
2023/09/18 04:10:00;;;;;;;7.97;4.88;;;;;;;17.18;100.00;96090.50;5021251;28;20048;-68
2023/09/18 04:12:26;;;;;;;11.10;4.90;;;;;;;17.20;100.00;96099.16;5015842;28;20045;-68
2023/09/18 04:14:52;;;;;;;12.07;4.20;;;;;;;17.19;100.00;96098.34;5022078;28;20048;-68
2023/09/18 04:17:17;;;;;;;11.82;4.65;;;;;;;17.17;100.00;96108.28;5016951;28;20049;-68
2023/09/18 04:19:43;;;;;;;7.22;4.07;;;;;;;17.25;100.00;96104.19;5020977;28;20046;-68
2023/09/18 04:22:10;;;;;;;11.43;4.35;;;;;;;17.34;100.00;96117.44;5016843;28;20041;-68
2023/09/18 04:24:35;;;;;;;10.10;3.83;;;;;;;17.42;100.00;96110.56;5029548;28;20057;-68
2023/09/18 04:27:01;;;;;;;10.57;4.78;;;;;;;17.27;100.00;96103.75;5022904;28;20053;-69
2023/09/18 04:29:26;;;;;;;16.45;8.07;;;;;;;17.27;100.00;96106.50;5017826;28;20135;-68
2023/09/18 04:31:53;;;;;;;8.10;4.45;;;;;;;17.36;100.00;96107.53;5022276;28;20065;-68
2023/09/18 04:34:19;;;;;;;7.65;4.10;;;;;;;17.30;100.00;96106.44;5016787;28;20041;-67
2023/09/18 04:36:44;;;;;;;10.20;4.68;;;;;;;17.13;100.00;96108.34;5026449;28;20098;-68
2023/09/18 04:39:10;;;;;;;7.88;3.88;;;;;;;16.99;100.00;96108.63;5021786;28;20055;-68
2023/09/18 04:41:35;;;;;;;9.18;4.10;;;;;;;17.11;100.00;96107.22;5021021;28;20037;-68
2023/09/18 04:44:02;;;;;;;9.05;3.97;;;;;;;17.12;100.00;96112.31;5019970;28;20077;-67
2023/09/18 04:46:29;;;;;;;14.35;4.47;;;;;;;17.05;100.00;96128.28;5018973;28;20077;-68
2023/09/18 04:48:55;;;;;;;11.60;4.53;;;;;;;16.89;100.00;96134.47;5021441;28;20038;-68
2023/09/18 04:51:20;;;;;;;10.77;4.95;;;;;;;16.74;100.00;96126.41;5017685;28;20068;-69
2023/09/18 04:53:45;;;;;;;17.05;5.97;;;;;;;16.64;100.00;96127.38;5021821;28;20038;-68
2023/09/18 04:56:11;;;;;;;8.07;4.75;;;;;;;16.68;100.00;96128.09;5015982;28;20057;-68
2023/09/18 04:58:37;;;;;;;7.47;4.72;;;;;;;16.82;100.00;96136.16;5021297;28;20060;-68
2023/09/18 05:01:05;;;;;;;11.85;4.40;;;;;;;16.76;100.00;96145.34;5018917;28;20049;-67
2023/09/18 05:03:32;;;;;;;16.15;5.10;;;;;;;16.65;100.00;96151.03;5021330;28;20151;-68
2023/09/18 05:05:58;;;;;;;10.85;5.93;;;;;;;16.55;100.00;96155.56;5020768;28;20042;-68
2023/09/18 05:08:23;;;;;;;13.57;5.63;;;;;;;16.46;100.00;96168.31;5016596;28;20049;-68
2023/09/18 05:10:49;;;;;;;12.82;4.68;;;;;;;16.48;100.00;96175.03;5020553;28;20069;-67
2023/09/18 05:13:14;;;;;;;8.25;4.85;;;;;;;16.54;100.00;96180.84;5017370;28;20045;-69
2023/09/18 05:15:39;;;;;;;14.52;5.40;;;;;;;16.39;100.00;96188.59;5027151;28;20052;-68
2023/09/18 05:18:05;;;;;;;8.85;5.13;;;;;;;16.39;100.00;96188.59;5016171;28;20045;-68
2023/09/18 05:20:31;;;;;;;8.88;4.90;;;;;;;16.45;100.00;96192.44;5020777;28;20068;-68
2023/09/18 05:22:59;;;;;;;8.43;5.15;;;;;;;16.39;100.00;96186.59;5020571;28;20033;-68
2023/09/18 05:25:27;;;;;;;9.80;4.70;;;;;;;16.37;100.00;96196.53;5015826;28;20132;-69
2023/09/18 05:27:56;;;;;;;12.07;5.53;;;;;;;16.20;100.00;96198.31;5030981;28;20041;-68
2023/09/18 05:30:28;;;;;;;12.35;5.32;;;;;;;15.99;100.00;96202.94;5001606;28;21148;-67
2023/09/18 05:32:54;;;;;;;10.05;5.45;;;;;;;16.02;100.00;96207.63;5013048;28;20042;-68
2023/09/18 05:35:21;;;;;;;12.30;6.00;;;;;;;16.23;100.00;96205.78;5004738;28;20092;-68
2023/09/18 05:37:47;;;;;;;12.13;6.07;;;;;;;16.39;100.00;96205.94;5004441;28;20042;-69
2023/09/18 05:40:13;;;;;;;11.82;5.30;;;;;;;16.61;100.00;96197.34;4998749;28;20460;-68
2023/09/18 05:42:43;;;;;;;9.80;5.40;;;;;;;16.94;100.00;96184.59;5005048;28;20112;-70
2023/09/18 05:45:11;;;;;;;12.90;5.15;;;;;;;17.21;100.00;96178.19;5008780;28;20049;-69
2023/09/18 05:47:37;;;;;;;13.60;6.20;;;;;;;17.48;100.00;96189.13;5006097;28;20100;-70
2023/09/18 05:50:06;;;;;;;9.80;4.60;;;;;;;17.22;100.00;96190.81;5002061;28;20042;-67
2023/09/18 05:52:33;;;;;;;7.82;5.00;;;;;;;16.53;100.00;96190.34;5014110;28;20682;-68
2023/09/18 05:55:00;;;;;;;10.50;5.30;;;;;;;16.88;100.00;96179.94;5010820;28;20042;-69
2023/09/18 05:57:27;;;;;;;7.80;4.88;;;;;;;16.91;100.00;96179.88;4990293;28;20056;-69
2023/09/18 05:59:53;;;;;;;8.48;4.50;;;;;;;17.32;100.00;96173.25;5004886;28;20144;-70
2023/09/18 06:02:20;;;;;;;42.15;16.50;;;;;;;17.80;100.00;96167.56;5003930;28;20092;-68
2023/09/18 06:04:46;;;;;;;34.10;18.67;;;;;;;18.20;100.00;96170.31;4995972;28;20129;-69
2023/09/18 06:07:12;;;;;;;9.52;5.50;;;;;;;18.47;100.00;96164.53;5000083;28;20133;-69
2023/09/18 06:09:38;;;;;;;12.07;5.65;;;;;;;18.60;100.00;96170.97;5002128;28;20050;-68
2023/09/18 06:12:04;;;;;;;18.25;6.90;;;;;;;18.70;100.00;96161.59;4999103;28;20391;-66
2023/09/18 06:14:31;;;;;;;11.82;5.15;;;;;;;18.68;100.00;96166.03;5004084;28;20894;-69
2023/09/18 06:16:57;;;;;;;10.13;4.32;;;;;;;18.00;100.00;96170.34;5022398;28;20041;-69
2023/09/18 06:19:22;;;;;;;10.32;5.05;;;;;;;17.71;100.00;96163.38;5015891;28;20901;-68
2023/09/18 06:21:48;;;;;;;10.57;5.63;;;;;;;17.47;100.00;96172.97;5021184;28;20046;-70
2023/09/18 06:24:13;;;;;;;8.35;5.18;;;;;;;17.43;100.00;96163.94;5007663;28;20045;-69
2023/09/18 06:26:39;;;;;;;17.05;5.43;;;;;;;17.42;100.00;96167.94;5004602;28;20053;-70
2023/09/18 06:29:04;;;;;;;10.70;5.55;;;;;;;17.52;100.00;96158.63;4998661;28;20444;-68
2023/09/18 06:31:31;;;;;;;10.02;5.82;;;;;;;17.58;100.00;96154.94;5017587;28;20042;-68
2023/09/18 06:33:56;;;;;;;10.30;5.30;;;;;;;17.84;100.00;96160.72;5005646;28;20045;-69
2023/09/18 06:36:22;;;;;;;10.98;4.82;;;;;;;18.23;100.00;96163.91;5014632;28;20290;-69
2023/09/18 06:38:48;;;;;;;11.70;5.45;;;;;;;18.51;100.00;96171.56;5012300;28;20053;-69
2023/09/18 06:41:14;;;;;;;9.70;5.13;;;;;;;18.71;100.00;96176.28;5007150;28;20042;-69
2023/09/18 06:43:39;;;;;;;11.43;4.53;;;;;;;18.85;100.00;96191.78;5011303;28;20060;-69
2023/09/18 06:46:07;;;;;;;13.15;4.95;;;;;;;19.10;100.00;96213.38;5007176;28;20136;-69
2023/09/18 06:48:32;;;;;;;13.02;4.90;;;;;;;19.12;100.00;96224.81;5007022;28;20049;-70
2023/09/18 06:50:59;;;;;;;15.68;4.65;;;;;;;19.13;100.00;96231.19;5006320;28;20041;-69
2023/09/18 06:53:27;;;;;;;10.30;4.90;;;;;;;18.87;100.00;96231.78;5005568;28;20034;-70
2023/09/18 06:55:53;;;;;;;12.80;5.13;;;;;;;18.81;100.00;96221.59;5012013;28;20141;-68
2023/09/18 06:58:18;;;;;;;9.35;4.45;;;;;;;18.85;100.00;96216.78;5007653;28;20140;-68
2023/09/18 07:00:44;;;;;;;13.77;5.20;;;;;;;19.03;100.00;96221.88;5007969;28;20149;-69
2023/09/18 07:03:09;;;;;;;14.10;4.95;;;;;;;19.17;100.00;96229.84;5001880;28;20053;-69
2023/09/18 07:05:35;;;;;;;18.10;4.88;;;;;;;19.03;100.00;96244.09;5009359;28;20049;-69
2023/09/18 07:08:00;;;;;;;15.82;4.00;;;;;;;18.89;100.00;96243.22;5010084;28;20132;-67
2023/09/18 07:10:26;;;;;;;13.57;4.68;;;;;;;18.93;100.00;96259.78;5005219;28;20042;-68
2023/09/18 07:12:51;;;;;;;14.68;3.88;;;;;;;19.02;100.00;96248.88;5009638;28;20037;-68
2023/09/18 07:15:17;;;;;;;10.32;4.07;;;;;;;19.13;100.00;96253.38;5001669;28;20041;-68
2023/09/18 07:17:43;;;;;;;18.88;3.60;;;;;;;19.32;100.00;96273.91;5009324;28;20100;-70
2023/09/18 07:20:13;;;;;;;14.02;3.53;;;;;;;19.36;100.00;96264.28;5006216;28;20140;-70
2023/09/18 07:22:41;;;;;;;11.95;3.53;;;;;;;19.42;100.00;96279.19;5009511;28;20065;-69
2023/09/18 07:25:07;;;;;;;16.27;3.28;;;;;;;19.45;100.00;96283.13;5005850;28;20085;-69
2023/09/18 07:27:32;;;;;;;13.63;3.78;;;;;;;19.57;100.00;96282.41;5006690;28;20443;-70
2023/09/18 07:29:58;;;;;;;12.88;3.25;;;;;;;19.69;100.00;96289.25;5006593;28;20045;-69
2023/09/18 07:32:26;;;;;;;7.20;3.20;;;;;;;19.84;100.00;96284.91;5005196;28;20124;-69
2023/09/18 07:34:52;;;;;;;12.35;2.80;;;;;;;19.92;100.00;96287.50;5009174;28;20045;-69
2023/09/18 07:37:20;;;;;;;13.98;2.80;;;;;;;19.95;100.00;96294.94;5022970;28;20443;-70
2023/09/18 07:39:46;;;;;;;8.40;2.80;;;;;;;20.07;100.00;96291.44;5009703;28;20452;-69
2023/09/18 07:42:12;;;;;;;12.70;2.50;;;;;;;20.27;100.00;96304.38;4998181;28;20042;-70
2023/09/18 07:44:37;;;;;;;10.23;2.60;;;;;;;20.42;100.00;96308.34;5006315;28;20051;-69
2023/09/18 07:47:03;;;;;;;11.55;3.05;;;;;;;20.16;100.00;96316.59;5011751;28;20533;-68
2023/09/18 07:49:29;;;;;;;8.77;2.17;;;;;;;20.05;100.00;96314.09;5007356;28;20049;-70
2023/09/18 07:51:54;;;;;;;11.80;2.40;;;;;;;20.15;100.00;96314.25;5009572;28;20171;-70
2023/09/18 07:54:19;;;;;;;11.32;2.70;;;;;;;20.20;100.00;96311.72;5000305;28;20532;-68
2023/09/18 07:56:45;;;;;;;9.55;2.28;;;;;;;20.12;100.00;96329.81;5007190;28;20061;-68
2023/09/18 07:59:10;;;;;;;11.45;2.00;;;;;;;20.14;100.00;96324.59;5005175;28;20050;-68
2023/09/18 08:01:36;;;;;;;9.60;2.22;;;;;;;20.14;100.00;96323.81;5008663;28;20129;-68
2023/09/18 08:04:02;;;;;;;9.13;1.80;;;;;;;19.99;100.00;96329.00;5010449;28;20077;-67
2023/09/18 08:06:28;;;;;;;11.82;2.58;;;;;;;20.12;100.00;96321.47;5017091;28;20119;-69
2023/09/18 08:08:53;;;;;;;6.13;1.70;;;;;;;20.14;100.00;96330.16;5008909;28;20056;-71
2023/09/18 08:11:19;;;;;;;14.85;1.92;;;;;;;20.21;100.00;96343.09;4999556;28;20041;-70
2023/09/18 08:13:44;;;;;;;6.22;1.58;;;;;;;19.87;100.00;96355.50;5007032;28;20054;-69
2023/09/18 08:16:10;;;;;;;8.50;1.90;;;;;;;19.86;100.00;96354.72;5005340;28;20412;-69
2023/09/18 08:18:35;;;;;;;10.13;1.90;;;;;;;19.96;100.00;96352.88;5009519;28;20049;-70
2023/09/18 08:21:01;;;;;;;5.05;1.67;;;;;;;19.73;100.00;96339.97;5010126;28;20041;-69
2023/09/18 08:23:27;;;;;;;5.10;1.60;;;;;;;19.68;100.00;96354.38;5004438;28;20050;-68
2023/09/18 08:25:55;;;;;;;9.27;2.22;;;;;;;19.60;100.00;96366.88;4994467;28;20064;-68
2023/09/18 08:28:21;;;;;;;9.02;2.53;;;;;;;19.36;100.00;96369.03;5015785;28;20056;-69
2023/09/18 08:30:47;;;;;;;7.40;2.10;;;;;;;19.48;100.00;96360.78;5006999;28;20042;-68
2023/09/18 08:33:15;;;;;;;10.07;1.67;;;;;;;19.37;100.00;96353.94;5001982;28;20064;-67
2023/09/18 08:35:41;;;;;;;7.00;2.38;;;;;;;19.50;100.00;96365.91;5009660;28;20080;-68
2023/09/18 08:38:06;;;;;;;7.15;1.67;;;;;;;19.47;100.00;96364.78;5004392;28;20073;-68
2023/09/18 08:40:34;;;;;;;6.72;1.60;;;;;;;19.38;100.00;96372.16;5004742;28;20096;-69
2023/09/18 08:43:00;;;;;;;10.38;1.80;;;;;;;19.53;100.00;96380.94;5013130;28;20433;-69
2023/09/18 08:45:44;;;;;;;9.13;2.00;;;;;;;19.45;100.00;96385.88;5008264;28;20844;-70
2023/09/18 08:48:10;;;;;;;10.88;2.17;;;;;;;19.27;100.00;96389.84;5006548;28;20037;-69
2023/09/18 08:50:37;;;;;;;7.40;1.88;;;;;;;19.24;100.00;96403.81;5009325;28;20056;-70
2023/09/18 08:53:03;;;;;;;7.70;1.90;;;;;;;19.04;100.00;96396.31;5007012;28;20052;-67
2023/09/18 08:55:29;;;;;;;8.70;1.50;;;;;;;18.80;100.00;96405.91;5003726;28;20136;-69
2023/09/18 08:57:57;;;;;;;7.60;1.45;;;;;;;18.69;100.00;96422.78;5006321;28;20104;-70
2023/09/18 09:00:23;;;;;;;9.27;1.65;;;;;;;18.48;100.00;96424.75;5011067;28;20104;-70
2023/09/18 09:02:52;;;;;;;6.07;1.70;;;;;;;18.28;100.00;96435.84;5006802;28;20516;-70
2023/09/18 09:05:17;;;;;;;12.00;2.13;;;;;;;18.04;100.00;96440.63;5012687;28;20085;-69
2023/09/18 09:07:43;;;;;;;7.30;1.67;;;;;;;17.84;100.00;96445.28;5001173;28;20492;-70
2023/09/18 09:10:08;;;;;;;9.63;1.80;;;;;;;17.81;100.00;96458.00;4996038;28;20050;-70
2023/09/18 09:12:55;;;;;;;13.27;1.83;;;;;;;17.73;100.00;96456.53;5000776;28;20128;-68
2023/09/18 09:15:23;;;;;;;8.38;2.03;;;;;;;17.57;100.00;96452.44;4995994;28;20417;-68
2023/09/18 09:17:49;;;;;;;7.75;2.30;;;;;;;17.44;100.00;96450.66;5008032;28;20068;-69
2023/09/18 09:20:15;;;;;;;8.65;1.67;;;;;;;17.31;100.00;96458.75;4995838;28;20465;-69
2023/09/18 09:22:41;;;;;;;7.15;2.10;;;;;;;17.20;100.00;96467.97;5001127;28;20062;-68
2023/09/18 09:25:26;;;;;;;5.90;1.40;;;;;;;17.10;100.00;96473.66;4995834;28;20045;-71
2023/09/18 09:27:53;;;;;;;9.15;1.98;;;;;;;17.24;100.00;96467.91;4999544;28;20123;-69
2023/09/18 09:30:37;;;;;;;4.53;1.42;;;;;;;17.39;100.00;96471.28;4995794;28;20046;-69
2023/09/18 09:33:04;;;;;;;13.15;1.60;;;;;;;17.32;100.00;96469.41;4993787;28;20049;-68
2023/09/18 09:35:37;;;;;;;4.38;1.50;;;;;;;17.42;100.00;96466.91;5000491;28;20053;-69
2023/09/18 09:38:11;;;;;;;3.75;1.30;;;;;;;17.74;100.00;96471.97;5001843;28;20064;-69
2023/09/18 09:40:40;;;;;;;6.00;1.73;;;;;;;17.81;100.00;96474.63;5002327;28;20057;-69
2023/09/18 09:43:08;;;;;;;4.82;1.55;;;;;;;17.78;100.00;96481.00;4995394;28;20042;-69
2023/09/18 09:45:36;;;;;;;6.30;1.40;;;;;;;17.89;100.00;96484.41;5001105;28;20053;-70
2023/09/18 09:48:05;;;;;;;5.63;1.48;;;;;;;17.92;100.00;96502.97;4996853;28;20049;-69
2023/09/18 09:50:32;;;;;;;4.80;1.70;;;;;;;17.83;100.00;96488.06;5000484;28;20048;-70
2023/09/18 09:52:58;;;;;;;8.27;1.63;;;;;;;17.93;100.00;96487.91;4999738;28;20053;-70
2023/09/18 09:55:28;;;;;;;7.35;1.48;;;;;;;17.93;100.00;96489.88;4997471;28;20084;-70
2023/09/18 09:58:01;;;;;;;11.38;1.67;;;;;;;17.94;100.00;96486.69;5000991;28;20130;-70
2023/09/18 10:00:32;;;;;;;3.78;1.35;;;;;;;17.87;100.00;96497.13;4997012;28;20112;-69
2023/09/18 10:03:02;;;;;;;6.57;1.77;;;;;;;17.86;100.00;96506.63;5001343;28;20041;-68
2023/09/18 10:05:34;;;;;;;5.53;1.80;;;;;;;17.86;100.00;96512.97;5016468;28;20045;-69
2023/09/18 10:08:04;;;;;;;4.40;1.25;;;;;;;17.90;100.00;96513.69;5012551;28;20045;-70
2023/09/18 10:10:34;;;;;;;6.22;1.60;;;;;;;17.89;100.00;96503.00;4999100;28;20129;-69
2023/09/18 10:13:07;;;;;;;7.60;1.63;;;;;;;17.86;100.00;96499.09;5008532;28;20034;-70
2023/09/18 10:15:38;;;;;;;4.88;1.25;;;;;;;17.77;100.00;96505.16;5003056;28;20140;-69
2023/09/18 10:18:08;;;;;;;7.35;1.48;;;;;;;17.72;100.00;96507.59;5001147;28;20132;-68
2023/09/18 10:20:42;;;;;;;6.45;1.98;;;;;;;17.38;100.00;96500.16;5002813;28;20141;-68
2023/09/18 10:23:23;;;;;;;7.38;1.83;;;;;;;17.46;100.00;96506.38;5005384;28;20054;-71
2023/09/18 10:25:54;;;;;;;7.80;1.70;;;;;;;17.40;100.00;96500.53;5026785;28;20046;-69
2023/09/18 10:28:23;;;;;;;8.38;1.90;;;;;;;17.71;100.00;96497.72;5013284;28;20049;-68
2023/09/18 10:30:51;;;;;;;5.60;1.73;;;;;;;17.94;100.00;96503.31;5008039;28;20045;-70
2023/09/18 10:33:17;;;;;;;7.00;1.90;;;;;;;18.17;100.00;96503.75;5001644;28;20096;-71
2023/09/18 10:35:43;;;;;;;8.73;1.75;;;;;;;18.32;100.00;96488.44;5010335;28;20050;-71
2023/09/18 10:38:09;;;;;;;7.35;2.35;;;;;;;18.24;100.00;96495.31;5008083;28;20444;-70
2023/09/18 10:40:37;;;;;;;5.82;1.80;;;;;;;18.46;100.00;96488.19;5011481;28;20045;-71
2023/09/18 10:43:05;;;;;;;4.72;2.28;;;;;;;18.69;100.00;96492.13;5010031;28;20050;-68
2023/09/18 10:45:31;;;;;;;5.38;1.92;;;;;;;18.52;100.00;96494.03;5008600;28;20046;-69
2023/09/18 10:47:57;;;;;;;5.07;2.20;;;;;;;18.68;100.00;96487.78;5007527;28;20083;-69
2023/09/18 10:50:24;;;;;;;6.68;2.10;;;;;;;18.76;100.00;96497.53;5017468;28;20156;-70
2023/09/18 10:52:50;;;;;;;9.00;2.20;;;;;;;18.73;100.00;96490.84;5014986;28;20049;-69
2023/09/18 10:55:16;;;;;;;8.13;1.85;;;;;;;18.88;100.00;96496.94;4998395;28;20398;-68
2023/09/18 10:57:56;;;;;;;5.97;2.28;;;;;;;18.91;100.00;96500.84;5011502;28;20073;-70
2023/09/18 11:00:25;;;;;;;7.75;2.13;;;;;;;18.98;100.00;96500.72;4998359;28;20532;-69
2023/09/18 11:03:08;;;;;;;8.65;1.80;;;;;;;18.84;100.00;96503.78;5002844;28;20049;-68
2023/09/18 11:05:35;;;;;;;5.20;1.52;;;;;;;18.82;100.00;96509.75;5021755;28;20042;-71
2023/09/18 11:08:53;;;;;;;4.00;1.50;;;;;;;18.75;100.00;96512.63;5023110;28;20100;-69
2023/09/18 11:11:25;;;;;;;5.47;1.70;;;;;;;18.85;100.00;96510.88;4971958;28;20078;-69
2023/09/18 11:13:55;;;;;;;5.57;1.55;;;;;;;18.88;100.00;96507.25;4960727;28;20047;-70
2023/09/18 11:16:26;;;;;;;5.75;1.70;;;;;;;19.08;100.00;96512.81;4976257;28;20050;-69
2023/09/18 11:18:58;;;;;;;7.70;1.83;;;;;;;19.24;100.00;96520.41;5006914;28;20061;-69
2023/09/18 11:21:25;;;;;;;7.13;1.67;;;;;;;19.24;100.00;96531.53;5006123;28;20628;-70